createdAt,value
2019-03-25T00:00:53.167Z,8.40
2019-03-25T00:02:01.223Z,6.90
2019-03-25T00:03:09.816Z,7.10
2019-03-25T00:04:17.852Z,8.13
2019-03-25T00:05:25.868Z,7.73
2019-03-25T00:06:33.871Z,7.47
2019-03-25T00:07:41.923Z,7.83
2019-03-25T00:09:03.217Z,8.20
2019-03-25T00:09:59.692Z,8.53
2019-03-25T00:11:07.757Z,8.20
2019-03-25T00:12:15.781Z,7.87
2019-03-25T00:13:23.781Z,8.27
2019-03-25T00:14:31.822Z,8.00
2019-03-25T00:15:39.852Z,8.00
2019-03-25T00:16:47.903Z,8.10
2019-03-25T00:17:55.939Z,7.73
2019-03-25T00:19:04.066Z,8.37
2019-03-25T00:20:12.343Z,7.27
2019-03-25T00:21:20.470Z,8.47
2019-03-25T00:22:28.463Z,7.87
2019-03-25T00:23:36.478Z,8.00
2019-03-25T00:24:44.470Z,8.23
2019-03-25T00:25:52.504Z,8.47
2019-03-25T00:27:00.495Z,7.67
2019-03-25T00:28:08.531Z,8.47
2019-03-25T00:29:16.583Z,7.87
2019-03-25T00:30:24.621Z,8.47
2019-03-25T00:31:32.656Z,8.60
2019-03-25T00:32:40.675Z,7.90
2019-03-25T00:33:48.680Z,8.50
2019-03-25T00:34:56.687Z,8.13
2019-03-25T00:36:04.721Z,8.37
2019-03-25T00:37:12.876Z,8.27
2019-03-25T00:38:20.899Z,7.73
2019-03-25T00:39:28.933Z,8.00
2019-03-25T00:40:37.209Z,8.33
2019-03-25T00:41:45.260Z,8.47
2019-03-25T00:42:53.298Z,8.33
2019-03-25T00:44:01.242Z,8.50
2019-03-25T00:45:09.848Z,8.33
2019-03-25T00:46:17.855Z,8.80
2019-03-25T00:47:26.939Z,8.73
2019-03-25T00:48:34.961Z,7.87
2019-03-25T00:49:43.011Z,8.63
2019-03-25T00:50:52.204Z,9.33
2019-03-25T00:52:00.269Z,9.57
2019-03-25T00:53:08.279Z,8.57
2019-03-25T00:54:16.339Z,8.67
2019-03-25T00:55:24.390Z,8.97
2019-03-25T00:56:32.410Z,8.30
2019-03-25T00:57:40.434Z,9.67
2019-03-25T00:58:49.023Z,8.97
2019-03-25T00:59:57.059Z,8.93
2019-03-25T01:01:05.324Z,8.60
2019-03-25T01:02:13.356Z,8.90
2019-03-25T01:03:21.391Z,8.97
2019-03-25T01:04:29.399Z,8.87
2019-03-25T01:05:37.418Z,10.27
2019-03-25T01:06:45.452Z,9.53
2019-03-25T01:07:53.475Z,9.60
2019-03-25T01:09:01.496Z,8.33
2019-03-25T01:10:11.616Z,8.60
2019-03-25T01:11:19.635Z,9.97
2019-03-25T01:12:27.678Z,8.97
2019-03-25T01:13:35.678Z,8.90
2019-03-25T01:14:43.699Z,9.47
2019-03-25T01:15:51.703Z,9.33
2019-03-25T01:16:59.755Z,8.83
2019-03-25T01:18:16.295Z,8.57
2019-03-25T01:19:17.431Z,8.60
2019-03-25T01:20:25.547Z,8.50
2019-03-25T01:21:34.628Z,9.20
2019-03-25T01:22:42.709Z,9.20
2019-03-25T01:23:50.939Z,8.47
2019-03-25T01:25:02.064Z,9.23
2019-03-25T01:26:08.661Z,9.03
2019-03-25T01:27:16.682Z,7.97
2019-03-25T01:28:24.688Z,8.10
2019-03-25T01:29:32.754Z,9.03
2019-03-25T01:30:40.792Z,8.97
2019-03-25T01:31:49.981Z,8.83
2019-03-25T01:32:58.006Z,8.70
2019-03-25T01:34:06.022Z,8.83
2019-03-25T01:35:14.134Z,8.67
2019-03-25T01:36:23.219Z,9.00
2019-03-25T01:37:31.238Z,8.67
2019-03-25T01:38:39.260Z,8.47
2019-03-25T01:39:47.281Z,9.53
2019-03-25T01:40:55.301Z,8.67
2019-03-25T01:42:03.547Z,9.97
2019-03-25T01:43:11.553Z,8.57
2019-03-25T01:44:19.603Z,8.47
2019-03-25T01:45:27.612Z,8.10
2019-03-25T01:46:36.695Z,9.00
2019-03-25T01:47:44.778Z,8.43
2019-03-25T01:48:52.783Z,8.87
2019-03-25T01:50:00.892Z,8.67
2019-03-25T01:51:08.927Z,8.97
2019-03-25T01:52:17.013Z,8.47
2019-03-25T01:53:26.095Z,8.13
2019-03-25T01:54:34.104Z,8.23
2019-03-25T01:55:42.181Z,8.97
2019-03-25T01:56:50.189Z,9.03
2019-03-25T01:57:58.207Z,8.67
2019-03-25T01:59:06.215Z,9.10
2019-03-25T02:00:16.094Z,9.23
2019-03-25T02:01:24.130Z,8.73
2019-03-25T02:02:32.185Z,8.50
2019-03-25T02:03:40.175Z,9.13
2019-03-25T02:04:48.238Z,8.47
2019-03-25T02:05:56.229Z,8.60
2019-03-25T02:07:04.265Z,8.70
2019-03-25T02:08:12.271Z,8.77
2019-03-25T02:09:20.291Z,7.63
2019-03-25T02:10:28.297Z,7.93
2019-03-25T02:11:36.257Z,8.03
2019-03-25T02:12:44.323Z,7.83
2019-03-25T02:13:52.344Z,7.70
2019-03-25T02:15:00.381Z,7.33
2019-03-25T02:16:08.642Z,7.90
2019-03-25T02:17:17.129Z,8.30
2019-03-25T02:18:25.148Z,7.10
2019-03-25T02:19:33.154Z,7.90
2019-03-25T02:20:41.175Z,7.63
2019-03-25T02:21:49.198Z,6.73
2019-03-25T02:22:57.355Z,7.17
2019-03-25T02:24:05.404Z,6.90
2019-03-25T02:25:24.534Z,6.70
2019-03-25T02:26:23.110Z,7.00
2019-03-25T02:27:31.130Z,7.20
2019-03-25T02:28:39.152Z,7.40
2019-03-25T02:29:47.157Z,5.97
2019-03-25T02:30:55.165Z,6.67
2019-03-25T02:32:03.200Z,6.60
2019-03-25T02:33:11.264Z,6.50
2019-03-25T02:34:19.272Z,6.60
2019-03-25T02:35:27.293Z,7.00
2019-03-25T02:36:35.283Z,6.20
2019-03-25T02:37:43.350Z,7.00
2019-03-25T02:38:51.355Z,5.87
2019-03-25T02:39:59.406Z,5.70
2019-03-25T02:41:07.427Z,5.80
2019-03-25T02:42:15.464Z,5.77
2019-03-25T02:43:23.469Z,6.30
2019-03-25T02:44:31.476Z,5.97
2019-03-25T02:45:39.465Z,5.80
2019-03-25T02:46:47.517Z,5.90
2019-03-25T02:47:55.537Z,6.10
2019-03-25T02:49:03.561Z,5.47
2019-03-25T02:50:12.856Z,6.13
2019-03-25T02:51:20.874Z,5.60
2019-03-25T02:52:28.881Z,6.03
2019-03-25T02:53:36.920Z,5.13
2019-03-25T02:54:44.939Z,5.67
2019-03-25T02:55:52.930Z,5.43
2019-03-25T02:57:00.965Z,5.43
2019-03-25T02:58:08.899Z,5.53
2019-03-25T02:59:16.917Z,5.90
2019-03-25T03:00:40.703Z,5.67
2019-03-25T03:01:48.893Z,4.77
2019-03-25T03:02:56.966Z,5.50
2019-03-25T03:04:04.945Z,5.47
2019-03-25T03:05:13.147Z,5.73
2019-03-25T03:06:21.188Z,4.63
2019-03-25T03:07:29.206Z,5.07
2019-03-25T03:08:37.214Z,5.30
2019-03-25T03:09:45.215Z,5.33
2019-03-25T03:10:53.254Z,5.17
2019-03-25T03:12:01.711Z,5.80
2019-03-25T03:13:09.712Z,5.40
2019-03-25T03:14:17.720Z,5.37
2019-03-25T03:15:25.724Z,5.40
2019-03-25T03:16:33.747Z,5.43
2019-03-25T03:17:42.817Z,5.13
2019-03-25T03:18:50.823Z,5.23
2019-03-25T03:19:58.868Z,5.20
2019-03-25T03:21:06.895Z,5.10
2019-03-25T03:22:14.899Z,5.57
2019-03-25T03:23:22.921Z,5.77
2019-03-25T03:24:30.901Z,5.70
2019-03-25T03:25:38.929Z,5.70
2019-03-25T03:26:46.913Z,5.13
2019-03-25T03:27:54.937Z,5.33
2019-03-25T03:29:02.929Z,5.00
2019-03-25T03:30:11.439Z,4.67
2019-03-25T03:31:20.403Z,5.60
2019-03-25T03:32:28.395Z,5.63
2019-03-25T03:33:36.447Z,4.87
2019-03-25T03:34:44.459Z,5.77
2019-03-25T03:35:52.546Z,5.53
2019-03-25T03:37:00.576Z,5.57
2019-03-25T03:38:08.607Z,5.47
2019-03-25T03:39:16.625Z,5.20
2019-03-25T03:40:24.643Z,5.07
2019-03-25T03:41:32.637Z,5.33
2019-03-25T03:42:40.643Z,5.47
2019-03-25T03:43:48.647Z,4.93
2019-03-25T03:44:56.655Z,5.30
2019-03-25T03:46:04.644Z,4.93
2019-03-25T03:47:12.649Z,5.03
2019-03-25T03:48:20.658Z,5.37
2019-03-25T03:49:28.661Z,5.70
2019-03-25T03:50:36.681Z,5.03
2019-03-25T03:51:44.809Z,4.87
2019-03-25T03:52:52.813Z,4.67
2019-03-25T03:54:00.829Z,5.00
2019-03-25T03:55:09.382Z,4.47
2019-03-25T03:56:18.003Z,4.93
2019-03-25T03:57:26.399Z,4.37
2019-03-25T03:58:35.435Z,4.43
2019-03-25T03:59:44.003Z,5.67
2019-03-25T04:00:52.021Z,4.87
2019-03-25T04:02:00.054Z,4.57
2019-03-25T04:03:08.076Z,5.10
2019-03-25T04:04:16.079Z,4.90
2019-03-25T04:05:24.281Z,4.13
2019-03-25T04:06:32.297Z,4.57
2019-03-25T04:07:40.310Z,4.20
2019-03-25T04:08:48.329Z,4.70
2019-03-25T04:09:56.350Z,4.40
2019-03-25T04:11:04.387Z,4.47
2019-03-25T04:12:12.391Z,4.90
2019-03-25T04:13:20.491Z,4.60
2019-03-25T04:14:28.494Z,4.17
2019-03-25T04:15:36.515Z,4.20
2019-03-25T04:16:44.563Z,4.20
2019-03-25T04:17:52.556Z,4.40
2019-03-25T04:19:00.561Z,4.60
2019-03-25T04:20:09.228Z,4.00
2019-03-25T04:21:17.278Z,4.23
2019-03-25T04:22:26.326Z,4.07
2019-03-25T04:23:34.325Z,4.13
2019-03-25T04:24:42.349Z,4.03
2019-03-25T04:25:50.442Z,4.20
2019-03-25T04:26:58.475Z,4.27
2019-03-25T04:28:06.453Z,4.40
2019-03-25T04:29:14.451Z,4.30
2019-03-25T04:30:22.432Z,4.13
2019-03-25T04:31:30.460Z,4.37
2019-03-25T04:32:38.490Z,3.90
2019-03-25T04:33:46.496Z,4.13
2019-03-25T04:34:54.532Z,3.93
2019-03-25T04:36:02.611Z,4.20
2019-03-25T04:37:10.632Z,4.27
2019-03-25T04:38:18.672Z,3.63
2019-03-25T04:39:26.704Z,4.30
2019-03-25T04:40:34.738Z,4.00
2019-03-25T04:41:42.760Z,3.77
2019-03-25T04:42:50.767Z,4.07
2019-03-25T04:43:58.756Z,3.67
2019-03-25T04:45:07.818Z,4.17
2019-03-25T04:46:15.863Z,3.63
2019-03-25T04:47:24.978Z,3.93
2019-03-25T04:48:32.998Z,3.80
2019-03-25T04:49:41.006Z,4.00
2019-03-25T04:50:49.012Z,3.83
2019-03-25T04:51:57.063Z,4.03
2019-03-25T04:53:05.102Z,3.27
2019-03-25T04:54:13.028Z,3.63
2019-03-25T04:55:21.443Z,3.50
2019-03-25T04:56:39.059Z,3.33
2019-03-25T04:57:39.237Z,3.43
2019-03-25T04:58:47.241Z,3.50
2019-03-25T04:59:55.233Z,3.13
2019-03-25T05:01:03.343Z,3.00
2019-03-25T05:02:11.334Z,3.00
2019-03-25T05:03:19.326Z,3.50
2019-03-25T05:04:27.345Z,3.80
2019-03-25T05:05:36.293Z,3.13
2019-03-25T05:06:44.499Z,3.60
2019-03-25T05:07:52.489Z,3.00
2019-03-25T05:09:00.495Z,3.77
2019-03-25T05:10:10.571Z,3.20
2019-03-25T05:11:30.066Z,3.20
2019-03-25T05:12:28.262Z,3.30
2019-03-25T05:13:36.237Z,3.10
2019-03-25T05:14:44.214Z,3.30
2019-03-25T05:15:52.249Z,3.23
2019-03-25T05:17:00.270Z,3.00
2019-03-25T05:18:08.320Z,3.60
2019-03-25T05:19:17.366Z,3.17
2019-03-25T05:20:25.382Z,3.17
2019-03-25T05:21:33.390Z,2.73
2019-03-25T05:22:41.363Z,3.20
2019-03-25T05:23:49.368Z,3.47
2019-03-25T05:24:57.359Z,3.40
2019-03-25T05:26:05.650Z,3.10
2019-03-25T05:27:13.655Z,3.10
2019-03-25T05:28:21.631Z,3.30
2019-03-25T05:29:29.622Z,3.13
2019-03-25T05:30:49.636Z,2.80
2019-03-25T05:31:57.625Z,2.97
2019-03-25T05:33:05.631Z,3.37
2019-03-25T05:34:13.638Z,2.77
2019-03-25T05:35:21.632Z,3.57
2019-03-25T05:36:29.634Z,3.47
2019-03-25T05:37:37.610Z,3.40
2019-03-25T05:38:45.647Z,3.47
2019-03-25T05:39:54.704Z,3.00
2019-03-25T05:41:02.768Z,3.37
2019-03-25T05:42:10.749Z,3.47
2019-03-25T05:43:21.052Z,3.43
2019-03-25T05:44:28.437Z,3.43
2019-03-25T05:45:36.429Z,3.07
2019-03-25T05:46:44.509Z,3.13
2019-03-25T05:47:52.426Z,3.17
2019-03-25T05:49:00.431Z,3.30
2019-03-25T05:50:09.290Z,3.50
2019-03-25T05:51:17.421Z,3.03
2019-03-25T05:52:25.440Z,2.90
2019-03-25T05:53:34.510Z,3.13
2019-03-25T05:54:42.517Z,3.30
2019-03-25T05:55:50.508Z,3.80
2019-03-25T05:57:02.613Z,3.23
2019-03-25T05:58:08.217Z,3.40
2019-03-25T05:59:16.236Z,3.20
2019-03-25T06:00:26.463Z,3.47
2019-03-25T06:01:34.470Z,2.70
2019-03-25T06:02:42.504Z,2.93
2019-03-25T06:03:50.526Z,3.67
2019-03-25T06:04:58.547Z,3.27
2019-03-25T06:06:06.544Z,3.30
2019-03-25T06:07:14.514Z,3.20
2019-03-25T06:08:22.508Z,2.90
2019-03-25T06:09:31.561Z,3.53
2019-03-25T06:10:39.583Z,3.30
2019-03-25T06:11:47.573Z,3.17
2019-03-25T06:12:55.581Z,3.37
2019-03-25T06:14:03.616Z,3.47
2019-03-25T06:15:13.257Z,3.77
2019-03-25T06:16:21.290Z,3.60
2019-03-25T06:17:29.295Z,3.73
2019-03-25T06:18:37.317Z,3.03
2019-03-25T06:19:45.293Z,3.10
2019-03-25T06:20:53.498Z,3.37
2019-03-25T06:22:01.523Z,3.73
2019-03-25T06:23:09.515Z,3.20
2019-03-25T06:24:17.527Z,3.77
2019-03-25T06:25:25.579Z,3.40
2019-03-25T06:26:33.569Z,2.83
2019-03-25T06:27:41.608Z,3.37
2019-03-25T06:28:49.660Z,3.00
2019-03-25T06:29:57.650Z,3.33
2019-03-25T06:31:05.668Z,2.87
2019-03-25T06:32:13.705Z,3.93
2019-03-25T06:33:21.723Z,3.30
2019-03-25T06:34:29.731Z,3.33
2019-03-25T06:35:37.722Z,3.13
2019-03-25T06:36:45.758Z,2.97
2019-03-25T06:37:53.796Z,3.53
2019-03-25T06:39:01.816Z,3.50
2019-03-25T06:40:10.887Z,3.03
2019-03-25T06:41:18.892Z,3.37
2019-03-25T06:42:26.898Z,3.17
2019-03-25T06:43:34.920Z,3.77
2019-03-25T06:44:42.956Z,3.47
2019-03-25T06:45:50.982Z,3.30
2019-03-25T06:46:58.986Z,3.47
2019-03-25T06:48:07.003Z,3.70
2019-03-25T06:49:16.095Z,3.40
2019-03-25T06:50:24.087Z,3.90
2019-03-25T06:51:32.105Z,3.67
2019-03-25T06:52:40.115Z,3.40
2019-03-25T06:53:48.220Z,3.30
2019-03-25T06:54:56.242Z,3.30
2019-03-25T06:56:04.263Z,3.50
2019-03-25T06:57:12.282Z,3.30
2019-03-25T06:58:20.290Z,2.90
2019-03-25T06:59:28.297Z,3.47
2019-03-25T07:00:36.332Z,3.63
2019-03-25T07:01:44.671Z,3.37
2019-03-25T07:02:52.672Z,3.83
2019-03-25T07:04:00.693Z,3.70
2019-03-25T07:05:09.990Z,3.47
2019-03-25T07:06:18.236Z,3.30
2019-03-25T07:07:26.258Z,3.90
2019-03-25T07:08:34.264Z,4.03
2019-03-25T07:09:42.300Z,3.43
2019-03-25T07:10:50.728Z,3.90
2019-03-25T07:11:59.034Z,4.53
2019-03-25T07:13:07.923Z,3.90
2019-03-25T07:14:16.154Z,3.50
2019-03-25T07:15:28.361Z,3.87
2019-03-25T07:16:36.367Z,4.00
2019-03-25T07:17:44.389Z,3.83
2019-03-25T07:18:52.412Z,4.00
2019-03-25T07:20:00.347Z,3.60
2019-03-25T07:21:09.309Z,3.63
2019-03-25T07:22:17.344Z,3.73
2019-03-25T07:23:25.364Z,3.87
2019-03-25T07:24:33.369Z,3.80
2019-03-25T07:25:41.420Z,3.87
2019-03-25T07:26:49.427Z,4.00
2019-03-25T07:27:57.558Z,4.50
2019-03-25T07:29:05.560Z,3.83
2019-03-25T07:30:13.999Z,4.07
2019-03-25T07:31:22.021Z,3.53
2019-03-25T07:32:30.030Z,4.53
2019-03-25T07:33:38.033Z,4.77
2019-03-25T07:34:46.054Z,4.50
2019-03-25T07:35:54.061Z,4.13
2019-03-25T07:37:03.176Z,3.40
2019-03-25T07:38:11.171Z,4.07
2019-03-25T07:39:19.192Z,3.97
2019-03-25T07:40:27.241Z,4.40
2019-03-25T07:41:35.233Z,4.50
2019-03-25T07:42:43.280Z,4.23
2019-03-25T07:43:52.652Z,4.57
2019-03-25T07:45:00.659Z,4.43
2019-03-25T07:46:08.694Z,4.90
2019-03-25T07:47:16.730Z,4.07
2019-03-25T07:48:24.722Z,4.07
2019-03-25T07:49:32.774Z,5.00
2019-03-25T07:50:40.778Z,3.77
2019-03-25T07:51:48.784Z,4.47
2019-03-25T07:52:56.857Z,5.20
2019-03-25T07:54:05.924Z,4.97
2019-03-25T07:55:14.220Z,4.70
2019-03-25T07:56:23.197Z,4.57
2019-03-25T07:57:31.202Z,4.47
2019-03-25T07:58:39.234Z,4.77
2019-03-25T07:59:47.227Z,5.03
2019-03-25T08:00:55.268Z,4.30
2019-03-25T08:02:03.304Z,5.10
2019-03-25T08:03:11.269Z,4.23
2019-03-25T08:04:19.593Z,4.83
2019-03-25T08:05:27.603Z,4.27
2019-03-25T08:06:35.609Z,4.63
2019-03-25T08:07:43.655Z,4.67
2019-03-25T08:08:51.668Z,4.97
2019-03-25T08:09:59.597Z,4.27
2019-03-25T08:11:07.670Z,4.37
2019-03-25T08:12:15.655Z,4.77
2019-03-25T08:13:24.935Z,4.40
2019-03-25T08:14:33.017Z,5.10
2019-03-25T08:15:41.040Z,4.43
2019-03-25T08:16:49.043Z,5.37
2019-03-25T08:17:57.079Z,4.23
2019-03-25T08:19:05.179Z,5.17
2019-03-25T08:20:15.313Z,4.43
2019-03-25T08:21:25.103Z,4.30
2019-03-25T08:22:33.156Z,3.87
2019-03-25T08:23:41.150Z,4.43
2019-03-25T08:24:49.151Z,5.23
2019-03-25T08:25:57.145Z,4.60
2019-03-25T08:27:05.171Z,4.40
2019-03-25T08:28:13.200Z,4.53
2019-03-25T08:29:21.179Z,4.33
2019-03-25T08:30:29.336Z,4.10
2019-03-25T08:31:37.354Z,3.70
2019-03-25T08:32:45.390Z,4.17
2019-03-25T08:33:53.413Z,3.70
2019-03-25T08:35:01.433Z,3.17
2019-03-25T08:36:09.440Z,3.57
2019-03-25T08:37:17.445Z,4.13
2019-03-25T08:38:25.450Z,3.60
2019-03-25T08:39:33.504Z,3.87
2019-03-25T08:40:41.555Z,4.27
2019-03-25T08:41:49.544Z,3.90
2019-03-25T08:42:57.535Z,3.93
2019-03-25T08:44:05.528Z,3.80
2019-03-25T08:45:14.117Z,3.57
2019-03-25T08:46:22.183Z,3.57
2019-03-25T08:47:30.205Z,3.63
2019-03-25T08:48:38.226Z,4.27
2019-03-25T08:49:46.278Z,4.17
2019-03-25T08:50:54.313Z,3.40
2019-03-25T08:52:02.335Z,4.43
2019-03-25T08:53:11.031Z,4.73
2019-03-25T08:54:19.040Z,4.40
2019-03-25T08:55:27.148Z,3.37
2019-03-25T08:56:35.154Z,4.37
2019-03-25T08:57:43.177Z,3.90
2019-03-25T08:58:51.213Z,3.53
2019-03-25T08:59:59.250Z,4.30
2019-03-25T09:01:07.299Z,3.87
2019-03-25T09:02:15.392Z,3.90
2019-03-25T09:03:23.404Z,4.43
2019-03-25T09:04:31.408Z,4.03
2019-03-25T09:05:39.513Z,4.03
2019-03-25T09:06:48.036Z,4.17
2019-03-25T09:07:56.221Z,3.80
2019-03-25T09:09:05.248Z,4.00
2019-03-25T09:10:14.979Z,4.13
2019-03-25T09:11:23.047Z,3.73
2019-03-25T09:12:31.052Z,4.00
2019-03-25T09:13:39.103Z,4.03
2019-03-25T09:14:47.142Z,4.13
2019-03-25T09:15:55.218Z,4.00
2019-03-25T09:17:03.271Z,4.07
2019-03-25T09:18:11.267Z,4.67
2019-03-25T09:19:19.261Z,3.67
2019-03-25T09:20:27.276Z,3.90
2019-03-25T09:21:35.312Z,4.47
2019-03-25T09:22:43.467Z,3.73
2019-03-25T09:23:51.488Z,3.90
2019-03-25T09:25:01.673Z,3.80
2019-03-25T09:26:09.679Z,3.53
2019-03-25T09:27:17.728Z,3.70
2019-03-25T09:28:25.873Z,4.17
2019-03-25T09:29:33.966Z,4.43
2019-03-25T09:31:54.796Z,3.53
2019-03-25T09:33:03.235Z,4.47
2019-03-25T09:34:11.258Z,4.17
2019-03-25T09:35:19.293Z,3.37
2019-03-25T09:36:27.614Z,4.07
2019-03-25T09:37:35.606Z,3.83
2019-03-25T09:38:43.777Z,4.10
2019-03-25T09:39:51.830Z,3.33
2019-03-25T09:40:59.865Z,3.63
2019-03-25T09:42:07.870Z,4.13
2019-03-25T09:43:16.288Z,3.60
2019-03-25T09:44:25.235Z,3.70
2019-03-25T09:45:33.232Z,3.37
2019-03-25T09:46:41.231Z,3.37
2019-03-25T09:47:49.253Z,3.63
2019-03-25T09:48:57.259Z,3.60
2019-03-25T09:50:05.931Z,3.77
2019-03-25T09:51:14.053Z,3.47
2019-03-25T09:52:22.254Z,3.40
2019-03-25T09:53:31.458Z,3.50
2019-03-25T09:54:39.498Z,3.50
2019-03-25T09:55:47.575Z,4.10
2019-03-25T09:56:56.755Z,3.53
2019-03-25T09:58:04.774Z,3.60
2019-03-25T09:59:12.825Z,3.77
2019-03-25T10:00:26.202Z,3.70
2019-03-25T10:01:34.224Z,3.80
2019-03-25T10:02:42.231Z,3.77
2019-03-25T10:03:51.321Z,3.90
2019-03-25T10:04:59.353Z,3.23
2019-03-25T10:06:07.959Z,3.70
2019-03-25T10:07:24.532Z,3.97
2019-03-25T10:08:32.553Z,3.07
2019-03-25T10:09:40.548Z,3.10
2019-03-25T10:10:48.599Z,2.97
2019-03-25T10:11:56.619Z,3.73
2019-03-25T10:13:04.638Z,3.37
2019-03-25T10:14:12.691Z,3.63
2019-03-25T10:15:20.996Z,3.23
2019-03-25T10:16:29.021Z,3.10
2019-03-25T10:17:37.179Z,3.20
2019-03-25T10:18:45.223Z,2.77
2019-03-25T10:19:53.298Z,3.03
2019-03-25T10:21:01.281Z,3.90
2019-03-25T10:22:09.274Z,3.50
2019-03-25T10:23:17.271Z,4.03
2019-03-25T10:24:27.824Z,4.10
2019-03-25T10:25:35.036Z,3.60
2019-03-25T10:26:43.043Z,3.80
2019-03-25T10:27:51.122Z,3.57
2019-03-25T10:28:59.111Z,3.60
2019-03-25T10:30:08.963Z,3.33
2019-03-25T10:31:17.534Z,3.17
2019-03-25T10:32:25.726Z,2.97
2019-03-25T10:33:33.733Z,3.10
2019-03-25T10:34:41.753Z,3.80
2019-03-25T10:35:49.865Z,2.60
2019-03-25T10:36:58.982Z,2.40
2019-03-25T10:38:19.112Z,2.40
2019-03-25T10:39:19.649Z,3.20
2019-03-25T10:40:27.712Z,2.97
2019-03-25T10:41:38.338Z,3.37
2019-03-25T10:42:46.516Z,3.37
2019-03-25T10:43:54.509Z,2.70
2019-03-25T10:45:02.499Z,3.10
2019-03-25T10:46:10.595Z,2.97
2019-03-25T10:47:18.677Z,3.40
2019-03-25T10:48:26.683Z,3.20
2019-03-25T10:49:34.695Z,3.50
2019-03-25T10:50:42.755Z,3.30
2019-03-25T10:51:50.748Z,2.90
2019-03-25T10:52:58.872Z,3.37
2019-03-25T10:54:06.958Z,3.90
2019-03-25T10:55:16.554Z,3.50
2019-03-25T10:56:24.634Z,3.40
2019-03-25T10:57:33.358Z,3.77
2019-03-25T10:58:41.412Z,3.63
2019-03-25T10:59:49.416Z,3.27
2019-03-25T11:00:57.678Z,3.67
2019-03-25T11:02:05.822Z,4.23
2019-03-25T11:03:13.828Z,4.23
2019-03-25T11:04:21.832Z,3.30
2019-03-25T11:05:29.976Z,3.23
2019-03-25T11:06:37.995Z,3.73
2019-03-25T11:07:46.080Z,3.87
2019-03-25T11:08:54.412Z,3.70
2019-03-25T11:10:02.902Z,3.80
2019-03-25T11:11:10.999Z,4.03
2019-03-25T11:12:19.122Z,4.33
2019-03-25T11:13:27.128Z,3.80
2019-03-25T11:14:35.150Z,4.07
2019-03-25T11:15:43.143Z,4.63
2019-03-25T11:16:51.136Z,3.40
2019-03-25T11:17:59.228Z,4.37
2019-03-25T11:19:07.266Z,4.23
2019-03-25T11:20:15.872Z,4.47
2019-03-25T11:21:23.878Z,3.47
2019-03-25T11:22:39.315Z,2.93
2019-03-25T11:23:49.048Z,3.87
2019-03-25T11:24:57.039Z,3.77
2019-03-25T11:26:06.590Z,3.73
2019-03-25T11:27:15.182Z,4.03
2019-03-25T11:28:23.171Z,4.20
2019-03-25T11:29:31.178Z,3.53
2019-03-25T11:30:56.663Z,3.47
2019-03-25T11:32:04.684Z,3.70
2019-03-25T11:33:12.706Z,3.53
2019-03-25T11:34:20.719Z,4.10
2019-03-25T11:35:28.733Z,3.23
2019-03-25T11:36:36.739Z,3.90
2019-03-25T11:37:44.731Z,3.90
2019-03-25T11:38:52.768Z,3.87
2019-03-25T11:40:00.761Z,3.57
2019-03-25T11:41:08.811Z,3.67
2019-03-25T11:42:16.817Z,3.90
2019-03-25T11:43:24.839Z,3.67
2019-03-25T11:44:32.960Z,3.63
2019-03-25T11:45:41.002Z,4.17
2019-03-25T11:46:49.007Z,3.50
2019-03-25T11:47:57.044Z,3.10
2019-03-25T11:49:05.059Z,3.83
2019-03-25T11:50:13.631Z,4.03
2019-03-25T11:51:21.621Z,3.73
2019-03-25T11:52:29.655Z,4.10
2019-03-25T11:53:37.677Z,3.50
2019-03-25T11:54:45.712Z,3.33
2019-03-25T11:55:53.930Z,3.20
2019-03-25T11:57:01.950Z,3.77
2019-03-25T11:58:10.001Z,2.53
2019-03-25T11:59:18.809Z,3.10
2019-03-25T12:00:27.619Z,3.10
2019-03-25T12:01:35.628Z,3.33
2019-03-25T12:02:43.632Z,3.33
2019-03-25T12:03:51.625Z,3.20
2019-03-25T12:04:59.628Z,3.13
2019-03-25T12:06:07.769Z,3.00
2019-03-25T12:07:15.880Z,3.13
2019-03-25T12:08:23.901Z,3.20
2019-03-25T12:09:31.893Z,3.30
2019-03-25T12:10:39.883Z,3.50
2019-03-25T12:11:47.889Z,3.27
2019-03-25T12:12:55.911Z,2.70
2019-03-25T12:14:03.903Z,3.10
2019-03-25T12:15:12.494Z,3.33
2019-03-25T12:16:20.499Z,3.03
2019-03-25T12:17:28.505Z,3.20
2019-03-25T12:18:36.525Z,2.80
2019-03-25T12:19:44.503Z,2.57
2019-03-25T12:20:53.602Z,3.47
2019-03-25T12:22:01.641Z,3.30
2019-03-25T12:23:09.751Z,2.80
2019-03-25T12:24:17.762Z,2.47
2019-03-25T12:25:25.762Z,2.53
2019-03-25T12:26:33.782Z,3.10
2019-03-25T12:27:41.776Z,3.10
2019-03-25T12:28:49.798Z,2.80
2019-03-25T12:29:57.801Z,2.67
2019-03-25T12:31:05.822Z,2.97
2019-03-25T12:32:13.858Z,2.60
2019-03-25T12:33:21.864Z,2.30
2019-03-25T12:34:29.966Z,1.90
2019-03-25T12:35:38.071Z,2.10
2019-03-25T12:36:46.108Z,1.40
2019-03-25T12:37:54.113Z,1.60
2019-03-25T12:39:02.124Z,1.10
2019-03-25T12:40:10.669Z,1.10
2019-03-25T12:41:18.689Z,1.10
2019-03-25T12:42:26.692Z,1.07
2019-03-25T12:43:34.728Z,0.80
2019-03-25T12:44:42.722Z,1.00
2019-03-25T12:45:50.727Z,0.90
2019-03-25T12:46:58.720Z,0.83
2019-03-25T12:48:06.739Z,0.80
2019-03-25T12:49:14.758Z,1.03
2019-03-25T12:50:22.749Z,0.80
2019-03-25T12:51:30.803Z,0.87
2019-03-25T12:52:38.852Z,1.10
2019-03-25T12:53:46.964Z,1.10
2019-03-25T12:54:54.984Z,0.80
2019-03-25T12:56:02.976Z,0.93
2019-03-25T12:57:11.091Z,1.40
2019-03-25T12:58:19.078Z,1.50
2019-03-25T12:59:27.085Z,1.33
2019-03-25T13:00:43.655Z,1.30
2019-03-25T13:01:53.289Z,1.20
2019-03-25T13:03:01.545Z,1.50
2019-03-25T13:04:09.563Z,1.40
2019-03-25T13:05:17.569Z,1.40
2019-03-25T13:06:25.650Z,1.47
2019-03-25T13:07:33.659Z,1.73
2019-03-25T13:08:41.662Z,1.70
2019-03-25T13:09:49.673Z,0.70
2019-03-25T13:10:57.690Z,0.50
2019-03-25T13:12:05.984Z,0.20
2019-03-25T13:13:13.987Z,0.30
2019-03-25T13:14:21.993Z,0.40
2019-03-25T13:15:30.014Z,0.30
2019-03-25T13:16:38.038Z,0.30
2019-03-25T13:17:46.075Z,0.20
2019-03-25T13:18:54.078Z,0.20
2019-03-25T13:20:02.073Z,0.30
2019-03-25T13:21:10.074Z,0.50
2019-03-25T13:22:18.081Z,0.50
2019-03-25T13:23:26.101Z,0.57
2019-03-25T13:24:34.128Z,0.43
2019-03-25T13:25:42.158Z,0.50
2019-03-25T13:26:50.153Z,0.60
2019-03-25T13:27:58.306Z,0.70
2019-03-25T13:29:06.527Z,0.77
2019-03-25T13:30:14.987Z,0.93
2019-03-25T13:31:22.988Z,0.90
2019-03-25T13:32:30.975Z,1.30
2019-03-25T13:33:39.041Z,1.80
2019-03-25T13:34:47.080Z,1.43
2019-03-25T13:35:55.053Z,1.50
2019-03-25T13:37:03.048Z,1.20
2019-03-25T13:38:11.025Z,1.27
2019-03-25T13:39:19.041Z,1.20
2019-03-25T13:40:27.062Z,1.07
2019-03-25T13:41:35.069Z,1.30
2019-03-25T13:42:43.090Z,1.27
2019-03-25T13:43:52.433Z,1.30
2019-03-25T13:45:00.406Z,1.20
2019-03-25T13:46:08.397Z,1.17
2019-03-25T13:47:16.418Z,1.10
2019-03-25T13:48:24.456Z,1.50
2019-03-25T13:49:32.460Z,1.17
2019-03-25T13:50:40.452Z,1.50
2019-03-25T13:51:48.442Z,1.33
2019-03-25T13:52:56.435Z,1.73
2019-03-25T13:54:06.843Z,1.20
2019-03-25T13:55:14.156Z,1.60
2019-03-25T13:56:22.177Z,1.03
2019-03-25T13:57:30.183Z,1.40
2019-03-25T13:58:38.188Z,1.40
2019-03-25T13:59:46.227Z,1.23
2019-03-25T14:00:54.216Z,1.30
2019-03-25T14:02:02.193Z,1.20
2019-03-25T14:03:10.229Z,1.27
2019-03-25T14:04:18.219Z,1.30
2019-03-25T14:05:26.225Z,1.40
2019-03-25T14:06:34.247Z,1.40
2019-03-25T14:07:42.238Z,1.60
2019-03-25T14:08:50.244Z,1.10
2019-03-25T14:09:58.233Z,1.17
2019-03-25T14:11:06.260Z,1.27
2019-03-25T14:12:14.261Z,1.40
2019-03-25T14:13:22.252Z,1.30
2019-03-25T14:14:30.258Z,1.50
2019-03-25T14:15:38.279Z,1.10
2019-03-25T14:16:46.321Z,1.40
2019-03-25T14:17:54.321Z,1.30
2019-03-25T14:19:02.327Z,1.50
2019-03-25T14:20:11.341Z,1.47
2019-03-25T14:21:19.360Z,1.10
2019-03-25T14:22:27.384Z,1.30
2019-03-25T14:23:35.374Z,1.53
2019-03-25T14:24:43.364Z,1.20
2019-03-25T14:25:51.354Z,1.37
2019-03-25T14:26:59.345Z,1.43
2019-03-25T14:28:07.757Z,1.27
2019-03-25T14:29:15.776Z,1.30
2019-03-25T14:30:24.368Z,1.10
2019-03-25T14:31:32.361Z,1.23
2019-03-25T14:32:40.353Z,1.50
2019-03-25T14:33:48.341Z,1.50
2019-03-25T14:34:56.325Z,1.77
2019-03-25T14:36:04.368Z,1.37
2019-03-25T14:37:12.375Z,1.53
2019-03-25T14:38:20.369Z,1.07
2019-03-25T14:39:28.386Z,1.17
2019-03-25T14:40:36.452Z,1.40
2019-03-25T14:41:44.473Z,0.90
2019-03-25T14:42:52.481Z,1.40
2019-03-25T14:44:00.486Z,1.47
2019-03-25T14:45:09.076Z,1.10
2019-03-25T14:46:17.175Z,1.10
2019-03-25T14:47:25.208Z,1.20
2019-03-25T14:48:33.214Z,1.20
2019-03-25T14:49:41.222Z,1.13
2019-03-25T14:50:49.241Z,1.17
2019-03-25T14:51:57.266Z,0.97
2019-03-25T14:53:05.509Z,1.57
2019-03-25T14:54:13.529Z,1.00
2019-03-25T14:55:21.602Z,1.10
2019-03-25T14:56:29.621Z,1.03
2019-03-25T14:57:37.601Z,1.10
2019-03-25T14:58:45.645Z,1.40
2019-03-25T14:59:53.681Z,1.10
2019-03-25T15:01:01.718Z,1.00
2019-03-25T15:02:09.737Z,1.10
2019-03-25T15:03:17.775Z,1.00
2019-03-25T15:04:25.798Z,1.20
2019-03-25T15:05:33.801Z,1.17
2019-03-25T15:06:41.807Z,1.33
2019-03-25T15:07:49.818Z,1.00
2019-03-25T15:08:57.818Z,1.10
2019-03-25T15:10:06.486Z,0.80